sensor_id;sensor_type;location;lat;lon;timestamp;pressure;altitude;pressure_sealevel;temperature;humidity
62548;BME280;48602;45.192;5.722;2022-11-15T00:00:49;99125.63;;;12.60;81.85
62548;BME280;48602;45.192;5.722;2022-11-15T00:03:20;99127.34;;;12.61;81.77
62548;BME280;48602;45.192;5.722;2022-11-15T00:05:46;99127.41;;;12.59;82.19
62548;BME280;48602;45.192;5.722;2022-11-15T00:08:12;99124.00;;;12.57;82.22
62548;BME280;48602;45.192;5.722;2022-11-15T00:10:37;99121.34;;;12.57;82.51
62548;BME280;48602;45.192;5.722;2022-11-15T00:13:08;99112.56;;;12.57;82.62
62548;BME280;48602;45.192;5.722;2022-11-15T00:15:37;99110.94;;;12.54;82.93
62548;BME280;48602;45.192;5.722;2022-11-15T00:18:04;99114.53;;;12.53;83.09
62548;BME280;48602;45.192;5.722;2022-11-15T00:20:31;99109.38;;;12.50;83.24
62548;BME280;48602;45.192;5.722;2022-11-15T00:22:56;99113.00;;;12.48;83.79
62548;BME280;48602;45.192;5.722;2022-11-15T00:25:22;99114.88;;;12.46;83.29
62548;BME280;48602;45.192;5.722;2022-11-15T00:27:47;99114.09;;;12.44;83.48
62548;BME280;48602;45.192;5.722;2022-11-15T00:30:12;99111.44;;;12.44;83.07
62548;BME280;48602;45.192;5.722;2022-11-15T00:32:38;99099.22;;;12.41;83.49
62548;BME280;48602;45.192;5.722;2022-11-15T00:35:04;99101.00;;;12.41;83.98
62548;BME280;48602;45.192;5.722;2022-11-15T00:37:29;99098.34;;;12.41;84.45
62548;BME280;48602;45.192;5.722;2022-11-15T00:39:54;99097.50;;;12.40;84.49
62548;BME280;48602;45.192;5.722;2022-11-15T00:42:20;99098.53;;;12.38;84.39
62548;BME280;48602;45.192;5.722;2022-11-15T00:44:45;99088.81;;;12.38;84.21
62548;BME280;48602;45.192;5.722;2022-11-15T00:47:10;99088.88;;;12.37;84.72
62548;BME280;48602;45.192;5.722;2022-11-15T00:49:36;99089.94;;;12.33;85.05
62548;BME280;48602;45.192;5.722;2022-11-15T00:52:01;99078.59;;;12.31;85.33
62548;BME280;48602;45.192;5.722;2022-11-15T00:54:27;99092.88;;;12.27;85.56
62548;BME280;48602;45.192;5.722;2022-11-15T00:56:52;99093.81;;;12.26;85.98
62548;BME280;48602;45.192;5.722;2022-11-15T00:59:17;99100.13;;;12.23;86.04
62548;BME280;48602;45.192;5.722;2022-11-15T01:01:43;99090.47;;;12.22;85.92
62548;BME280;48602;45.192;5.722;2022-11-15T01:04:08;99094.13;;;12.19;86.38
62548;BME280;48602;45.192;5.722;2022-11-15T01:06:33;99104.75;;;12.18;86.40
62548;BME280;48602;45.192;5.722;2022-11-15T01:08:59;99096.03;;;12.16;86.54
62548;BME280;48602;45.192;5.722;2022-11-15T01:11:24;99099.69;;;12.13;86.70
62548;BME280;48602;45.192;5.722;2022-11-15T01:13:50;99099.69;;;12.13;87.03
62548;BME280;48602;45.192;5.722;2022-11-15T01:16:17;99097.03;;;12.13;87.30
62548;BME280;48602;45.192;5.722;2022-11-15T01:18:44;99097.97;;;12.12;87.29
62548;BME280;48602;45.192;5.722;2022-11-15T01:21:14;99097.03;;;12.13;86.92
62548;BME280;48602;45.192;5.722;2022-11-15T01:23:40;99097.16;;;12.10;87.19
62548;BME280;48602;45.192;5.722;2022-11-15T01:26:09;99089.31;;;12.09;87.44
62548;BME280;48602;45.192;5.722;2022-11-15T01:28:36;99082.41;;;12.06;87.58
62548;BME280;48602;45.192;5.722;2022-11-15T01:31:05;99080.69;;;12.05;87.85
62548;BME280;48602;45.192;5.722;2022-11-15T01:33:30;99081.69;;;12.03;87.92
62548;BME280;48602;45.192;5.722;2022-11-15T01:35:56;99077.41;;;12.00;87.93
62548;BME280;48602;45.192;5.722;2022-11-15T01:38:23;99081.91;;;11.98;88.11
62548;BME280;48602;45.192;5.722;2022-11-15T01:40:51;99073.31;;;11.93;88.28
62548;BME280;48602;45.192;5.722;2022-11-15T01:45:50;99084.03;;;11.90;88.52
62548;BME280;48602;45.192;5.722;2022-11-15T01:48:19;99081.47;;;11.88;88.46
62548;BME280;48602;45.192;5.722;2022-11-15T01:50:45;99078.97;;;11.85;88.92
62548;BME280;48602;45.192;5.722;2022-11-15T01:53:10;99081.63;;;11.85;89.10
62548;BME280;48602;45.192;5.722;2022-11-15T01:55:36;99070.25;;;11.83;89.67
62548;BME280;48602;45.192;5.722;2022-11-15T01:58:04;99068.59;;;11.81;89.53
62548;BME280;48602;45.192;5.722;2022-11-15T02:00:31;99060.75;;;11.79;89.65
62548;BME280;48602;45.192;5.722;2022-11-15T02:02:57;99055.53;;;11.78;89.80
62548;BME280;48602;45.192;5.722;2022-11-15T02:05:23;99050.25;;;11.78;90.05
62548;BME280;48602;45.192;5.722;2022-11-15T02:07:48;99046.69;;;11.79;90.10
62548;BME280;48602;45.192;5.722;2022-11-15T02:10:18;99052.91;;;11.78;90.21
62548;BME280;48602;45.192;5.722;2022-11-15T02:12:45;99045.81;;;11.78;90.11
62548;BME280;48602;45.192;5.722;2022-11-15T02:15:12;99047.63;;;11.78;90.15
62548;BME280;48602;45.192;5.722;2022-11-15T02:29:03;99037.16;;;11.75;90.32
62548;BME280;48602;45.192;5.722;2022-11-15T02:34:25;99035.38;;;11.75;90.87
62548;BME280;48602;45.192;5.722;2022-11-15T02:42:04;99019.53;;;11.75;90.90
62548;BME280;48602;45.192;5.722;2022-11-15T02:44:55;99018.63;;;11.76;90.93
62548;BME280;48602;45.192;5.722;2022-11-15T02:47:24;99015.13;;;11.76;90.95
62548;BME280;48602;45.192;5.722;2022-11-15T02:49:52;99010.75;;;11.75;91.15
62548;BME280;48602;45.192;5.722;2022-11-15T02:52:23;99010.75;;;11.75;91.12
62548;BME280;48602;45.192;5.722;2022-11-15T03:00:35;99010.91;;;11.72;91.48
62548;BME280;48602;45.192;5.722;2022-11-15T03:06:20;99005.63;;;11.72;91.48
62548;BME280;48602;45.192;5.722;2022-11-15T03:11:50;99003.91;;;11.71;91.66
62548;BME280;48602;45.192;5.722;2022-11-15T03:14:25;99008.28;;;11.72;91.86
62548;BME280;48602;45.192;5.722;2022-11-15T03:19:58;99007.25;;;11.74;91.98
62548;BME280;48602;45.192;5.722;2022-11-15T03:22:29;99009.84;;;11.76;92.23
62548;BME280;48602;45.192;5.722;2022-11-15T03:25:02;99015.00;;;11.79;92.13
62548;BME280;48602;45.192;5.722;2022-11-15T03:27:34;99015.06;;;11.77;92.08
62548;BME280;48602;45.192;5.722;2022-11-15T03:30:05;99009.78;;;11.77;92.49
62548;BME280;48602;45.192;5.722;2022-11-15T03:32:35;99014.19;;;11.77;91.86
62548;BME280;48602;45.192;5.722;2022-11-15T03:35:18;99007.13;;;11.77;92.35
62548;BME280;48602;45.192;5.722;2022-11-15T03:40:14;98988.84;;;11.73;92.28
62548;BME280;48602;45.192;5.722;2022-11-15T03:45:32;98976.72;;;11.69;92.85
62548;BME280;48602;45.192;5.722;2022-11-15T03:50:35;98960.00;;;11.68;92.82
62548;BME280;48602;45.192;5.722;2022-11-15T03:53:01;98955.66;;;11.67;92.71
62548;BME280;48602;45.192;5.722;2022-11-15T03:55:27;98963.59;;;11.67;93.18
62548;BME280;48602;45.192;5.722;2022-11-15T03:57:55;98963.66;;;11.66;92.90
62548;BME280;48602;45.192;5.722;2022-11-15T04:00:22;98969.84;;;11.65;93.00
62548;BME280;48602;45.192;5.722;2022-11-15T04:02:48;98967.22;;;11.65;92.99
62548;BME280;48602;45.192;5.722;2022-11-15T04:05:13;98961.88;;;11.66;93.23
62548;BME280;48602;45.192;5.722;2022-11-15T04:07:38;98956.59;;;11.66;93.16
62548;BME280;48602;45.192;5.722;2022-11-15T04:10:04;98947.81;;;11.66;93.14
62548;BME280;48602;45.192;5.722;2022-11-15T04:12:35;98954.00;;;11.65;93.43
62548;BME280;48602;45.192;5.722;2022-11-15T04:15:08;98953.22;;;11.63;93.47
62548;BME280;48602;45.192;5.722;2022-11-15T04:20:09;98933.88;;;11.62;93.59
62548;BME280;48602;45.192;5.722;2022-11-15T04:22:55;98938.31;;;11.62;93.63
62548;BME280;48602;45.192;5.722;2022-11-15T04:25:39;98928.75;;;11.59;93.63
62548;BME280;48602;45.192;5.722;2022-11-15T04:28:04;98926.09;;;11.59;93.88
62548;BME280;48602;45.192;5.722;2022-11-15T04:30:30;98927.97;;;11.57;93.93
62548;BME280;48602;45.192;5.722;2022-11-15T04:32:55;98925.41;;;11.56;94.09
62548;BME280;48602;45.192;5.722;2022-11-15T04:35:20;98915.78;;;11.54;94.11
62548;BME280;48602;45.192;5.722;2022-11-15T04:37:46;98923.78;;;11.53;94.44
62548;BME280;48602;45.192;5.722;2022-11-15T04:40:11;98920.28;;;11.52;94.32
62548;BME280;48602;45.192;5.722;2022-11-15T04:42:36;98915.84;;;11.53;94.25
62548;BME280;48602;45.192;5.722;2022-11-15T04:45:02;98919.41;;;11.52;94.89
62548;BME280;48602;45.192;5.722;2022-11-15T04:47:27;98916.78;;;11.52;94.65
62548;BME280;48602;45.192;5.722;2022-11-15T04:49:54;98905.44;;;11.50;94.55
62548;BME280;48602;45.192;5.722;2022-11-15T04:52:20;98903.72;;;11.49;94.77
62548;BME280;48602;45.192;5.722;2022-11-15T04:54:45;98894.94;;;11.48;94.83
62548;BME280;48602;45.192;5.722;2022-11-15T04:57:11;98889.81;;;11.45;94.56
62548;BME280;48602;45.192;5.722;2022-11-15T04:59:36;98890.72;;;11.44;94.79
62548;BME280;48602;45.192;5.722;2022-11-15T05:02:01;98892.44;;;11.45;94.81
62548;BME280;48602;45.192;5.722;2022-11-15T05:04:27;98899.44;;;11.46;94.91
62548;BME280;48602;45.192;5.722;2022-11-15T05:06:52;98885.31;;;11.47;94.94
62548;BME280;48602;45.192;5.722;2022-11-15T05:09:19;98878.38;;;11.45;94.79
62548;BME280;48602;45.192;5.722;2022-11-15T05:11:45;98875.81;;;11.43;94.92
62548;BME280;48602;45.192;5.722;2022-11-15T05:14:11;98876.69;;;11.44;94.78
62548;BME280;48602;45.192;5.722;2022-11-15T05:16:36;98873.19;;;11.43;94.91
62548;BME280;48602;45.192;5.722;2022-11-15T05:19:02;98866.13;;;11.44;94.86
62548;BME280;48602;45.192;5.722;2022-11-15T05:21:27;98870.47;;;11.45;94.98
62548;BME280;48602;45.192;5.722;2022-11-15T05:23:53;98859.97;;;11.43;94.97
62548;BME280;48602;45.192;5.722;2022-11-15T05:26:18;98856.47;;;11.43;94.79
62548;BME280;48602;45.192;5.722;2022-11-15T05:28:44;98846.00;;;11.41;94.97
62548;BME280;48602;45.192;5.722;2022-11-15T05:31:14;98841.66;;;11.40;95.14
62548;BME280;48602;45.192;5.722;2022-11-15T05:33:41;98842.50;;;11.41;95.50
62548;BME280;48602;45.192;5.722;2022-11-15T05:36:13;98843.34;;;11.41;95.14
62548;BME280;48602;45.192;5.722;2022-11-15T05:38:42;98844.28;;;11.40;95.52
62548;BME280;48602;45.192;5.722;2022-11-15T05:41:08;98843.34;;;11.41;95.53
62548;BME280;48602;45.192;5.722;2022-11-15T05:43:36;98840.66;;;11.43;95.82
62548;BME280;48602;45.192;5.722;2022-11-15T05:46:04;98841.44;;;11.45;95.75
62548;BME280;48602;45.192;5.722;2022-11-15T05:48:29;98843.16;;;11.46;95.71
62548;BME280;48602;45.192;5.722;2022-11-15T05:50:56;98841.38;;;11.46;95.58
62548;BME280;48602;45.192;5.722;2022-11-15T05:53:23;98830.88;;;11.45;95.54
62548;BME280;48602;45.192;5.722;2022-11-15T05:55:50;98826.38;;;11.47;95.02
62548;BME280;48602;45.192;5.722;2022-11-15T05:58:16;98836.09;;;11.46;95.36
62548;BME280;48602;45.192;5.722;2022-11-15T06:00:42;98842.34;;;11.44;95.32
62548;BME280;48602;45.192;5.722;2022-11-15T06:03:08;98832.66;;;11.44;95.72
62548;BME280;48602;45.192;5.722;2022-11-15T06:05:33;98836.22;;;11.43;95.60
62548;BME280;48602;45.192;5.722;2022-11-15T06:07:59;98839.72;;;11.44;95.83
62548;BME280;48602;45.192;5.722;2022-11-15T06:10:25;98830.00;;;11.44;95.71
62548;BME280;48602;45.192;5.722;2022-11-15T06:13:02;98841.38;;;11.46;95.50
62548;BME280;48602;45.192;5.722;2022-11-15T06:15:28;98838.78;;;11.45;95.67
62548;BME280;48602;45.192;5.722;2022-11-15T06:17:56;98840.56;;;11.44;95.66
62548;BME280;48602;45.192;5.722;2022-11-15T06:20:23;98835.28;;;11.44;95.82
62548;BME280;48602;45.192;5.722;2022-11-15T06:22:49;98833.59;;;11.43;95.80
62548;BME280;48602;45.192;5.722;2022-11-15T06:25:14;98838.00;;;11.43;95.42
62548;BME280;48602;45.192;5.722;2022-11-15T06:27:40;98824.88;;;11.41;95.63
62548;BME280;48602;45.192;5.722;2022-11-15T06:30:05;98823.16;;;11.40;96.04
62548;BME280;48602;45.192;5.722;2022-11-15T06:32:31;98830.22;;;11.40;95.62
62548;BME280;48602;45.192;5.722;2022-11-15T06:34:56;98832.81;;;11.41;95.70
62548;BME280;48602;45.192;5.722;2022-11-15T06:37:22;98836.28;;;11.42;95.83
62548;BME280;48602;45.192;5.722;2022-11-15T06:39:47;98834.50;;;11.42;95.93
62548;BME280;48602;45.192;5.722;2022-11-15T06:42:12;98831.88;;;11.42;95.86
62548;BME280;48602;45.192;5.722;2022-11-15T06:44:38;98829.31;;;11.41;95.86
62548;BME280;48602;45.192;5.722;2022-11-15T06:47:03;98837.16;;;11.42;95.99
62548;BME280;48602;45.192;5.722;2022-11-15T06:49:28;98843.22;;;11.44;95.89
62548;BME280;48602;45.192;5.722;2022-11-15T06:51:54;98848.50;;;11.44;96.00
62548;BME280;48602;45.192;5.722;2022-11-15T06:54:19;98837.94;;;11.44;95.75
62548;BME280;48602;45.192;5.722;2022-11-15T06:56:46;98842.28;;;11.45;95.42
62548;BME280;48602;45.192;5.722;2022-11-15T06:59:11;98834.38;;;11.45;96.06
62548;BME280;48602;45.192;5.722;2022-11-15T07:01:36;98837.00;;;11.45;96.01
62548;BME280;48602;45.192;5.722;2022-11-15T07:04:02;98838.72;;;11.46;96.23
62548;BME280;48602;45.192;5.722;2022-11-15T07:06:27;98850.06;;;11.48;96.32
62548;BME280;48602;45.192;5.722;2022-11-15T07:08:53;98840.28;;;11.50;96.54
62548;BME280;48602;45.192;5.722;2022-11-15T07:11:18;98834.88;;;11.53;96.09
62548;BME280;48602;45.192;5.722;2022-11-15T07:13:43;98833.94;;;11.54;96.24
62548;BME280;48602;45.192;5.722;2022-11-15T07:16:09;98835.66;;;11.56;95.87
62548;BME280;48602;45.192;5.722;2022-11-15T07:18:39;98831.06;;;11.59;95.83
62548;BME280;48602;45.192;5.722;2022-11-15T07:21:07;98832.75;;;11.60;95.75
62548;BME280;48602;45.192;5.722;2022-11-15T07:23:35;98835.34;;;11.62;95.71
62548;BME280;48602;45.192;5.722;2022-11-15T07:26:01;98835.25;;;11.63;95.45
62548;BME280;48602;45.192;5.722;2022-11-15T07:28:27;98822.00;;;11.65;95.37
62548;BME280;48602;45.192;5.722;2022-11-15T07:30:52;98821.00;;;11.67;95.63
62548;BME280;48602;45.192;5.722;2022-11-15T07:33:18;98823.41;;;11.72;95.59
62548;BME280;48602;45.192;5.722;2022-11-15T07:35:43;98836.44;;;11.75;95.49
62548;BME280;48602;45.192;5.722;2022-11-15T07:38:11;98839.81;;;11.78;95.22
62548;BME280;48602;45.192;5.722;2022-11-15T07:40:37;98837.88;;;11.82;95.16
62548;BME280;48602;45.192;5.722;2022-11-15T07:43:05;98831.53;;;11.86;95.18
62548;BME280;48602;45.192;5.722;2022-11-15T07:45:31;98833.91;;;11.91;94.97
62548;BME280;48602;45.192;5.722;2022-11-15T07:47:58;98830.19;;;11.95;94.70
62548;BME280;48602;45.192;5.722;2022-11-15T07:50:24;98830.97;;;11.97;94.73
62548;BME280;48602;45.192;5.722;2022-11-15T07:52:58;98824.63;;;12.01;94.78
62548;BME280;48602;45.192;5.722;2022-11-15T07:55:25;98821.75;;;12.05;94.54
62548;BME280;48602;45.192;5.722;2022-11-15T07:57:52;98830.34;;;12.09;94.34
62548;BME280;48602;45.192;5.722;2022-11-15T08:00:18;98836.34;;;12.12;93.74
62548;BME280;48602;45.192;5.722;2022-11-15T08:02:44;98837.06;;;12.16;nan
62548;BME280;48602;45.192;5.722;2022-11-15T08:05:09;98830.75;;;12.18;93.50
62548;BME280;48602;45.192;5.722;2022-11-15T08:07:35;98820.03;;;12.21;93.23
62548;BME280;48602;45.192;5.722;2022-11-15T08:10:00;98820.63;;;12.27;93.36
62548;BME280;48602;45.192;5.722;2022-11-15T08:12:27;98817.75;;;12.31;93.13
62548;BME280;48602;45.192;5.722;2022-11-15T08:14:54;98817.44;;;12.37;92.80
62548;BME280;48602;45.192;5.722;2022-11-15T08:17:20;98806.53;;;12.43;92.83
62548;BME280;48602;45.192;5.722;2022-11-15T08:19:46;98811.59;;;12.48;92.77
62548;BME280;48602;45.192;5.722;2022-11-15T08:22:11;98809.56;;;12.53;92.18
62548;BME280;48602;45.192;5.722;2022-11-15T08:24:37;98809.41;;;12.56;92.21
62548;BME280;48602;45.192;5.722;2022-11-15T08:27:03;98809.22;;;12.59;92.54
62548;BME280;48602;45.192;5.722;2022-11-15T08:29:28;98809.91;;;12.63;92.11
62548;BME280;48602;45.192;5.722;2022-11-15T08:31:55;98803.63;;;12.65;91.95
62548;BME280;48602;45.192;5.722;2022-11-15T08:34:21;98802.53;;;12.69;91.67
62548;BME280;48602;45.192;5.722;2022-11-15T08:36:46;98802.34;;;12.72;91.61
62548;BME280;48602;45.192;5.722;2022-11-15T08:39:12;98792.38;;;12.77;91.96
62548;BME280;48602;45.192;5.722;2022-11-15T08:41:38;98794.78;;;12.82;91.52
62548;BME280;48602;45.192;5.722;2022-11-15T08:44:04;98791.88;;;12.86;92.05
62548;BME280;48602;45.192;5.722;2022-11-15T08:46:29;98790.66;;;12.92;91.13
62548;BME280;48602;45.192;5.722;2022-11-15T08:48:55;98783.44;;;12.96;90.97
62548;BME280;48602;45.192;5.722;2022-11-15T08:51:20;98794.00;;;12.96;90.68
62548;BME280;48602;45.192;5.722;2022-11-15T08:53:46;98791.19;;;12.99;90.73
62548;BME280;48602;45.192;5.722;2022-11-15T08:56:13;98783.09;;;13.02;90.87
62548;BME280;48602;45.192;5.722;2022-11-15T08:58:39;98781.81;;;13.09;91.00
62548;BME280;48602;45.192;5.722;2022-11-15T09:01:05;98780.63;;;13.14;90.67
62548;BME280;48602;45.192;5.722;2022-11-15T09:03:31;98779.47;;;13.20;90.51
62548;BME280;48602;45.192;5.722;2022-11-15T09:05:58;98780.16;;;13.23;90.44
62548;BME280;48602;45.192;5.722;2022-11-15T09:08:25;98773.63;;;13.29;90.38
62548;BME280;48602;45.192;5.722;2022-11-15T09:10:51;98761.84;;;13.35;90.06
62548;BME280;48602;45.192;5.722;2022-11-15T09:13:17;98765.19;;;13.38;89.61
62548;BME280;48602;45.192;5.722;2022-11-15T09:15:42;98764.81;;;13.44;89.53
62548;BME280;48602;45.192;5.722;2022-11-15T09:18:08;98761.06;;;13.48;89.53
62548;BME280;48602;45.192;5.722;2022-11-15T09:20:33;98756.53;;;13.50;89.22
62548;BME280;48602;45.192;5.722;2022-11-15T09:23:00;98750.03;;;13.56;88.97
62548;BME280;48602;45.192;5.722;2022-11-15T09:25:26;98746.31;;;13.58;88.86
62548;BME280;48602;45.192;5.722;2022-11-15T09:27:52;98743.41;;;13.63;88.65
62548;BME280;48602;45.192;5.722;2022-11-15T09:30:17;98751.97;;;13.68;89.14
62548;BME280;48602;45.192;5.722;2022-11-15T09:32:42;98728.59;;;13.75;88.66
62548;BME280;48602;45.192;5.722;2022-11-15T09:35:08;98735.41;;;13.79;87.96
62548;BME280;48602;45.192;5.722;2022-11-15T09:37:33;98741.41;;;13.82;88.25
62548;BME280;48602;45.192;5.722;2022-11-15T09:39:58;98723.53;;;13.86;88.13
62548;BME280;48602;45.192;5.722;2022-11-15T09:47:48;98723.63;;;13.98;87.42
62548;BME280;48602;45.192;5.722;2022-11-15T09:50:44;98725.94;;;14.05;87.21
62548;BME280;48602;45.192;5.722;2022-11-15T09:53:16;98705.94;;;14.13;87.04
62548;BME280;48602;45.192;5.722;2022-11-15T09:56:01;98710.78;;;14.21;86.59
62548;BME280;48602;45.192;5.722;2022-11-15T09:58:39;98699.78;;;14.27;86.30
62548;BME280;48602;45.192;5.722;2022-11-15T10:04:18;98690.19;;;14.40;85.74
62548;BME280;48602;45.192;5.722;2022-11-15T10:07:01;98701.53;;;14.42;85.33
62548;BME280;48602;45.192;5.722;2022-11-15T10:09:38;98698.69;;;14.45;85.29
62548;BME280;48602;45.192;5.722;2022-11-15T10:12:08;98691.38;;;14.49;85.32
62548;BME280;48602;45.192;5.722;2022-11-15T10:14:35;98695.66;;;14.51;85.60
62548;BME280;48602;45.192;5.722;2022-11-15T10:22:24;98686.34;;;14.73;85.14
62548;BME280;48602;45.192;5.722;2022-11-15T10:25:01;98668.97;;;14.81;85.23
62548;BME280;48602;45.192;5.722;2022-11-15T10:27:36;98675.59;;;14.88;84.38
62548;BME280;48602;45.192;5.722;2022-11-15T10:30:05;98656.78;;;14.91;84.40
62548;BME280;48602;45.192;5.722;2022-11-15T10:32:36;98658.41;;;14.94;84.88
62548;BME280;48602;45.192;5.722;2022-11-15T10:35:16;98660.75;;;14.98;84.75
62548;BME280;48602;45.192;5.722;2022-11-15T10:37:41;98646.44;;;15.01;83.94
62548;BME280;48602;45.192;5.722;2022-11-15T10:40:20;98653.34;;;15.04;84.20
62548;BME280;48602;45.192;5.722;2022-11-15T10:42:45;98651.75;;;15.01;83.22
62548;BME280;48602;45.192;5.722;2022-11-15T10:45:29;98638.56;;;14.99;82.58
62548;BME280;48602;45.192;5.722;2022-11-15T10:50:45;98631.31;;;14.89;83.50
62548;BME280;48602;45.192;5.722;2022-11-15T10:53:35;98644.88;;;14.84;83.39
62548;BME280;48602;45.192;5.722;2022-11-15T10:56:07;98639.59;;;14.84;83.21
62548;BME280;48602;45.192;5.722;2022-11-15T10:58:39;98639.47;;;14.86;82.94
62548;BME280;48602;45.192;5.722;2022-11-15T11:01:19;98628.09;;;14.84;82.97
62548;BME280;48602;45.192;5.722;2022-11-15T11:06:25;98619.50;;;14.80;82.22
62548;BME280;48602;45.192;5.722;2022-11-15T11:08:59;98605.47;;;14.78;82.58
62548;BME280;48602;45.192;5.722;2022-11-15T11:11:43;98605.56;;;14.77;82.98
62548;BME280;48602;45.192;5.722;2022-11-15T11:14:19;98591.44;;;14.76;82.89
62548;BME280;48602;45.192;5.722;2022-11-15T11:16:51;98575.63;;;14.75;82.59
62548;BME280;48602;45.192;5.722;2022-11-15T11:19:42;98588.88;;;14.75;83.15
62548;BME280;48602;45.192;5.722;2022-11-15T11:22:19;98592.53;;;14.74;82.78
62548;BME280;48602;45.192;5.722;2022-11-15T11:33:16;98567.88;;;14.72;83.26
62548;BME280;48602;45.192;5.722;2022-11-15T11:49:51;98534.00;;;14.75;83.20
62548;BME280;48602;45.192;5.722;2022-11-15T11:55:05;98519.59;;;14.79;82.60
62548;BME280;48602;45.192;5.722;2022-11-15T11:57:51;98511.53;;;14.81;82.44
62548;BME280;48602;45.192;5.722;2022-11-15T12:00:23;98493.91;;;14.80;82.24
62548;BME280;48602;45.192;5.722;2022-11-15T12:03:02;98495.63;;;14.81;82.59
62548;BME280;48602;45.192;5.722;2022-11-15T12:05:46;98492.00;;;14.82;82.53
62548;BME280;48602;45.192;5.722;2022-11-15T12:08:41;98491.16;;;14.81;82.31
62548;BME280;48602;45.192;5.722;2022-11-15T12:11:42;98473.53;;;14.80;82.74
62548;BME280;48602;45.192;5.722;2022-11-15T12:14:25;98464.63;;;14.81;83.01
62548;BME280;48602;45.192;5.722;2022-11-15T12:16:51;98474.28;;;14.82;83.11
62548;BME280;48602;45.192;5.722;2022-11-15T12:19:17;98466.22;;;14.84;83.08
62548;BME280;48602;45.192;5.722;2022-11-15T12:22:12;98478.25;;;14.89;82.94
62548;BME280;48602;45.192;5.722;2022-11-15T12:24:45;98476.31;;;14.91;82.96
62548;BME280;48602;45.192;5.722;2022-11-15T12:27:21;98469.84;;;14.95;83.29
62548;BME280;48602;45.192;5.722;2022-11-15T12:29:58;98465.06;;;15.00;82.99
62548;BME280;48602;45.192;5.722;2022-11-15T12:32:35;98459.47;;;15.05;83.22
62548;BME280;48602;45.192;5.722;2022-11-15T12:35:04;98457.31;;;15.10;82.74
62548;BME280;48602;45.192;5.722;2022-11-15T12:40:36;98438.97;;;15.20;83.16
62548;BME280;48602;45.192;5.722;2022-11-15T12:45:40;98446.81;;;15.21;82.73
62548;BME280;48602;45.192;5.722;2022-11-15T13:11:59;98391.97;;;15.46;82.58
62548;BME280;48602;45.192;5.722;2022-11-15T13:14:46;98387.81;;;15.54;81.74
62548;BME280;48602;45.192;5.722;2022-11-15T13:19:48;98377.81;;;15.70;82.11
62548;BME280;48602;45.192;5.722;2022-11-15T13:22:17;98366.25;;;15.83;81.72
62548;BME280;48602;45.192;5.722;2022-11-15T13:25:01;98361.94;;;15.93;81.55
62548;BME280;48602;45.192;5.722;2022-11-15T13:27:27;98356.94;;;16.01;81.49
62548;BME280;48602;45.192;5.722;2022-11-15T13:29:54;98343.31;;;16.05;81.81
62548;BME280;48602;45.192;5.722;2022-11-15T13:32:19;98353.81;;;16.07;81.84
62548;BME280;48602;45.192;5.722;2022-11-15T13:34:48;98350.22;;;16.08;81.52
62548;BME280;48602;45.192;5.722;2022-11-15T13:39:46;98330.84;;;16.06;81.61
62548;BME280;48602;45.192;5.722;2022-11-15T13:42:18;98328.19;;;16.06;80.86
62548;BME280;48602;45.192;5.722;2022-11-15T13:44:58;98312.34;;;16.04;81.54
62548;BME280;48602;45.192;5.722;2022-11-15T13:47:28;98315.13;;;16.03;81.84
62548;BME280;48602;45.192;5.722;2022-11-15T13:49:57;98314.28;;;16.02;81.20
62548;BME280;48602;45.192;5.722;2022-11-15T13:52:31;98316.09;;;16.02;81.74
62548;BME280;48602;45.192;5.722;2022-11-15T13:57:29;98307.38;;;16.00;80.83
62548;BME280;48602;45.192;5.722;2022-11-15T14:00:05;98303.88;;;15.99;81.06
62548;BME280;48602;45.192;5.722;2022-11-15T14:02:33;98302.06;;;16.00;81.47
62548;BME280;48602;45.192;5.722;2022-11-15T14:05:05;98301.31;;;15.98;81.49
62548;BME280;48602;45.192;5.722;2022-11-15T14:07:39;98294.41;;;15.95;81.63
62548;BME280;48602;45.192;5.722;2022-11-15T14:10:25;98287.50;;;15.93;81.69
62548;BME280;48602;45.192;5.722;2022-11-15T14:12:55;98284.16;;;15.91;81.86
62548;BME280;48602;45.192;5.722;2022-11-15T14:15:36;98291.28;;;15.90;82.39
62548;BME280;48602;45.192;5.722;2022-11-15T14:18:03;98291.28;;;15.90;82.58
62548;BME280;48602;45.192;5.722;2022-11-15T14:20:33;98284.38;;;15.88;82.94
62548;BME280;48602;45.192;5.722;2022-11-15T14:23:28;98279.19;;;15.86;82.48
62548;BME280;48602;45.192;5.722;2022-11-15T14:25:55;98283.75;;;15.84;82.38
62548;BME280;48602;45.192;5.722;2022-11-15T14:30:51;98275.16;;;15.81;82.98
62548;BME280;48602;45.192;5.722;2022-11-15T14:35:44;98267.78;;;15.73;82.59
62548;BME280;48602;45.192;5.722;2022-11-15T14:38:09;98267.16;;;15.69;82.56
62548;BME280;48602;45.192;5.722;2022-11-15T14:40:35;98269.28;;;15.64;82.33
62548;BME280;48602;45.192;5.722;2022-11-15T14:43:00;98259.94;;;15.59;82.81
62548;BME280;48602;45.192;5.722;2022-11-15T14:45:26;98262.94;;;15.54;82.97
62548;BME280;48602;45.192;5.722;2022-11-15T14:47:52;98257.22;;;15.48;82.80
62548;BME280;48602;45.192;5.722;2022-11-15T14:50:20;98257.56;;;15.43;83.14
62548;BME280;48602;45.192;5.722;2022-11-15T14:52:46;98255.47;;;15.35;83.77
62548;BME280;48602;45.192;5.722;2022-11-15T14:55:24;98256.03;;;15.28;83.65
62548;BME280;48602;45.192;5.722;2022-11-15T14:57:50;98254.78;;;15.21;83.44
62548;BME280;48602;45.192;5.722;2022-11-15T15:00:17;98258.84;;;15.14;83.76
62548;BME280;48602;45.192;5.722;2022-11-15T15:02:45;98257.47;;;15.08;84.22
62548;BME280;48602;45.192;5.722;2022-11-15T15:07:43;98245.50;;;15.02;84.63
62548;BME280;48602;45.192;5.722;2022-11-15T15:10:10;98253.69;;;14.99;85.31
62548;BME280;48602;45.192;5.722;2022-11-15T15:12:36;98255.59;;;14.97;85.64
62548;BME280;48602;45.192;5.722;2022-11-15T15:15:01;98250.38;;;14.96;85.44
62548;BME280;48602;45.192;5.722;2022-11-15T15:17:26;98248.69;;;14.95;85.32
62548;BME280;48602;45.192;5.722;2022-11-15T15:19:52;98243.50;;;14.93;85.32
62548;BME280;48602;45.192;5.722;2022-11-15T15:22:19;98238.28;;;14.92;85.57
62548;BME280;48602;45.192;5.722;2022-11-15T15:24:48;98233.97;;;14.91;85.47